Gillette, WY

7:48 PM MDT on June 01, 2015 (GMT -0600)
McCann Heights, central Gillette | | Change Station
CLOSE
Current Station
Personal Weather Station
Location: Gillette, WY
Elevation: 4590 ft
Nearby Weather Stations

Elev 4590 ft 44.28 °N, 105.50 °W | Updated 8 minutes ago

Mostly Cloudy
Mostly Cloudy
79.0 °F
Feels Like 79 °F
N
7.3
Wind Variable Wind from ESE

Today
High -- | Low -- °F
--% Chance of Precip.
Yesterday
High -- | Low -- °F
Precip. -- in
5:20 AM 8:40 PM
Full, 100% visible
Pressure 29.87 in
Visibility 10.0 miles
Clouds Few 5000 ft
Few 8500 ft
Heat Index 79 °F
Dew Point 47 °F
Humidity 33%
Rainfall 0.00 in
Snow Depth Not available.
UV 1 out of 12
Pollen 7.60 out of 12
Air Quality Not available.
Flu Activity Sporadic
SPECI KBYG 020125Z AUTO 26035G45KT 10SM VCTS FEW050 FEW085 19/08 A2987 RMK AO2 PK WND 26049/0112 LTG DSNT NW-NE RAE15 TSB0056E19 P0004 T01940078

More Conditions Fewer Conditions

Pressure 29.87 in
Visibility 10.0 miles
Clouds Few 5000 ft
Few 8500 ft
Heat Index 79 °F
Dew Point 47 °F
Humidity 33%
Rainfall 0.00 in
Snow Depth Not available.
UV 1 out of 12
Pollen 7.60 out of 12
Air Quality Not available.
Flu Activity Sporadic
SPECI KBYG 020125Z AUTO 26035G45KT 10SM VCTS FEW050 FEW085 19/08 A2987 RMK AO2 PK WND 26049/0112 LTG DSNT NW-NE RAE15 TSB0056E19 P0004 T01940078

More Conditions Fewer Conditions

10-Day Weather Forecast

Almanac

Astronomy

Jun. 01, 2015 Rise Set
Actual Time
Civil Twilight
Nautical Twilight
Astronomical Twilight
Moon
Length of Visible Light
Length of Day
Tomorrow will be .
, % of the Moon is Illuminated

Today's Extremes

State Highs State Lows

Community

WunderPhotos

Upload Photos

1,825,851 photos uploaded!

WunderBlogs® & News

Nearby

Air Quality

  Air Quality AQ Index Pollutant
Not available.

Snow Depth

Station Depth Elevation

Earthquake Activity

City Distance Mag. Time & Date
Minimum magnitude displayed is 2.5.

Coastal Water Temperatures

Place Temperature

Stations

Nearby Weather Stations

Station Location Temp. Windchill Dew Point Humidity Wind Precip. Elev Updated Type